createdAt,value
2022-10-13T00:01:22.589Z,2.80
2022-10-13T00:03:50.219Z,3.40
2022-10-13T00:06:26.532Z,3.10
2022-10-13T00:08:56.630Z,3.60
2022-10-13T00:11:26.306Z,2.90
2022-10-13T00:14:03.561Z,3.10
2022-10-13T00:16:32.547Z,3.70
2022-10-13T00:18:59.515Z,3.90
2022-10-13T00:21:29.474Z,3.20
2022-10-13T00:23:57.356Z,3.50
2022-10-13T00:26:26.632Z,3.50
2022-10-13T00:28:56.110Z,3.30
2022-10-13T00:31:28.662Z,3.20
2022-10-13T00:33:56.198Z,3.10
2022-10-13T00:36:26.703Z,3.90
2022-10-13T00:38:56.123Z,2.90
2022-10-13T00:41:24.357Z,3.40
2022-10-13T00:44:03.258Z,3.60
2022-10-13T00:46:35.165Z,3.00
2022-10-13T00:49:08.449Z,3.50
2022-10-13T00:51:44.783Z,2.70
2022-10-13T00:56:43.281Z,3.10
2022-10-13T00:59:23.784Z,3.30
2022-10-13T01:01:53.656Z,3.50
2022-10-13T01:04:32.031Z,3.30
2022-10-13T01:07:01.143Z,3.50
2022-10-13T01:09:35.525Z,3.40
2022-10-13T01:12:14.401Z,3.60
2022-10-13T01:15:03.575Z,3.50
2022-10-13T01:17:44.683Z,3.30
2022-10-13T01:20:42.244Z,3.60
2022-10-13T01:23:25.522Z,3.30
2022-10-13T01:26:37.230Z,3.30
2022-10-13T01:29:42.712Z,3.30
2022-10-13T01:32:27.887Z,3.60
2022-10-13T01:35:11.594Z,3.40
2022-10-13T01:38:05.398Z,2.90
2022-10-13T01:41:10.803Z,2.70
2022-10-13T01:43:47.150Z,3.10
2022-10-13T01:46:28.561Z,3.80
2022-10-13T01:48:58.344Z,3.40
2022-10-13T01:51:29.306Z,2.90
2022-10-13T01:53:56.771Z,3.90
2022-10-13T01:56:27.106Z,3.60
2022-10-13T01:59:02.142Z,4.20
2022-10-13T02:01:44.964Z,3.40
2022-10-13T02:04:45.797Z,3.90
2022-10-13T02:07:19.265Z,3.20
2022-10-13T02:10:11.709Z,3.00
2022-10-13T02:13:04.000Z,3.10
2022-10-13T02:15:39.671Z,3.30
2022-10-13T02:18:11.728Z,3.10
2022-10-13T02:20:42.386Z,3.30
2022-10-13T02:23:17.501Z,3.40
2022-10-13T02:25:46.052Z,3.60
2022-10-13T02:28:15.729Z,3.70
2022-10-13T02:30:45.465Z,3.40
2022-10-13T02:33:15.108Z,3.40
2022-10-13T02:35:43.556Z,3.60
2022-10-13T02:38:11.176Z,3.50
2022-10-13T02:40:41.616Z,3.50
2022-10-13T02:43:09.285Z,3.20
2022-10-13T02:45:36.138Z,3.60
2022-10-13T02:48:03.812Z,3.90
2022-10-13T02:50:32.009Z,4.00
2022-10-13T02:52:58.862Z,3.90
2022-10-13T02:55:25.558Z,3.40
2022-10-13T02:57:56.045Z,3.10
2022-10-13T03:00:27.503Z,3.50
2022-10-13T03:02:55.010Z,3.30
2022-10-13T03:05:22.767Z,3.20
2022-10-13T03:07:50.785Z,3.60
2022-10-13T03:10:20.544Z,3.70
2022-10-13T03:12:50.837Z,3.90
2022-10-13T03:15:17.701Z,3.50
2022-10-13T03:17:48.299Z,3.50
2022-10-13T03:20:17.514Z,3.60
2022-10-13T03:22:49.523Z,4.20
2022-10-13T03:25:17.464Z,4.30
2022-10-13T03:27:44.166Z,3.50
2022-10-13T03:30:12.210Z,4.00
2022-10-13T03:32:39.799Z,3.00
2022-10-13T03:35:07.616Z,3.60
2022-10-13T03:37:34.231Z,3.40
2022-10-13T03:40:01.745Z,3.40
2022-10-13T03:42:30.850Z,3.40
2022-10-13T03:44:57.393Z,3.80
2022-10-13T03:47:24.370Z,3.70
2022-10-13T03:49:50.973Z,4.00
2022-10-13T03:52:24.254Z,3.90
2022-10-13T03:54:51.884Z,4.00
2022-10-13T03:57:19.529Z,4.40
2022-10-13T03:59:46.213Z,3.80
2022-10-13T04:02:14.462Z,3.80
2022-10-13T04:04:44.673Z,3.70
2022-10-13T04:07:11.287Z,3.60
2022-10-13T04:09:39.465Z,3.80
2022-10-13T04:12:06.259Z,3.70
2022-10-13T04:14:32.913Z,3.70
2022-10-13T04:17:03.654Z,3.50
2022-10-13T04:19:31.529Z,3.70
2022-10-13T04:22:01.984Z,3.90
2022-10-13T04:24:33.064Z,4.00
2022-10-13T04:27:00.112Z,4.00
2022-10-13T04:29:26.719Z,5.40
2022-10-13T04:31:54.769Z,4.30
2022-10-13T04:34:22.564Z,4.20
2022-10-13T04:36:52.002Z,4.50
2022-10-13T04:39:23.658Z,4.40
2022-10-13T04:44:21.513Z,4.70
2022-10-13T04:46:49.275Z,4.20
2022-10-13T04:49:17.084Z,4.20
2022-10-13T04:51:43.799Z,4.70
2022-10-13T04:54:10.714Z,4.40
2022-10-13T04:56:38.862Z,3.80
2022-10-13T04:59:08.461Z,3.80
2022-10-13T05:01:38.662Z,4.30
2022-10-13T05:04:20.673Z,4.80
2022-10-13T05:07:15.822Z,4.10
2022-10-13T05:09:35.247Z,4.50
2022-10-13T05:12:10.436Z,4.80
2022-10-13T05:14:38.343Z,4.70
2022-10-13T05:17:10.345Z,4.50
2022-10-13T05:19:36.882Z,4.40
2022-10-13T05:22:03.546Z,4.40
2022-10-13T05:24:36.659Z,4.50
2022-10-13T05:27:09.925Z,4.50
2022-10-13T05:29:38.102Z,4.60
2022-10-13T05:32:06.829Z,4.20
2022-10-13T05:34:33.763Z,4.50
2022-10-13T05:37:01.590Z,4.60
2022-10-13T05:39:33.113Z,4.90
2022-10-13T05:41:59.600Z,5.00
2022-10-13T05:44:27.731Z,4.50
2022-10-13T05:46:55.715Z,5.00
2022-10-13T05:49:24.923Z,5.20
2022-10-13T05:51:55.462Z,5.30
2022-10-13T05:54:39.717Z,5.10
2022-10-13T05:57:18.796Z,5.20
2022-10-13T05:59:54.618Z,5.30
2022-10-13T06:02:25.743Z,5.00
2022-10-13T06:04:56.139Z,4.40
2022-10-13T06:07:24.861Z,4.60
2022-10-13T06:09:51.587Z,4.70
2022-10-13T06:12:18.493Z,4.30
2022-10-13T06:14:45.420Z,4.70
2022-10-13T06:17:16.474Z,4.70
2022-10-13T06:19:45.324Z,4.80
2022-10-13T06:22:13.037Z,5.40
2022-10-13T06:24:40.579Z,4.80
2022-10-13T06:27:10.915Z,4.80
2022-10-13T06:29:37.738Z,5.10
2022-10-13T06:32:07.183Z,5.00
2022-10-13T06:34:33.724Z,5.80
2022-10-13T06:37:02.236Z,5.30
2022-10-13T06:39:33.026Z,4.90
2022-10-13T06:42:02.273Z,4.10
2022-10-13T06:44:36.686Z,4.60
2022-10-13T06:47:05.473Z,5.40
2022-10-13T06:49:34.439Z,5.80
2022-10-13T06:52:02.406Z,5.40
2022-10-13T06:54:28.935Z,5.70
2022-10-13T06:56:55.516Z,6.30
2022-10-13T06:59:25.585Z,5.80
2022-10-13T07:01:54.004Z,6.10
2022-10-13T07:04:21.358Z,6.30
2022-10-13T07:06:53.845Z,5.70
2022-10-13T07:09:20.534Z,5.70
2022-10-13T07:11:47.558Z,5.90
2022-10-13T07:14:15.811Z,5.90
2022-10-13T07:16:43.521Z,7.20
2022-10-13T07:19:10.338Z,6.20
2022-10-13T07:21:39.838Z,5.00
2022-10-13T07:24:07.881Z,6.20
2022-10-13T07:26:34.726Z,5.70
2022-10-13T07:29:02.782Z,5.70
2022-10-13T07:31:32.450Z,6.40
2022-10-13T07:34:04.656Z,6.50
2022-10-13T07:36:33.782Z,6.40
2022-10-13T07:39:03.641Z,6.50
2022-10-13T07:41:30.864Z,6.10
2022-10-13T07:43:58.867Z,6.70
2022-10-13T07:46:27.900Z,6.80
2022-10-13T07:48:56.095Z,6.40
2022-10-13T07:51:24.897Z,6.00
2022-10-13T07:53:53.237Z,6.30
2022-10-13T07:56:19.918Z,5.80
2022-10-13T07:58:47.668Z,6.50
2022-10-13T08:01:17.611Z,7.00
2022-10-13T08:03:50.659Z,6.40
2022-10-13T08:06:19.624Z,6.80
2022-10-13T08:08:47.888Z,6.20
2022-10-13T08:11:17.636Z,4.80
2022-10-13T08:13:51.904Z,6.90
2022-10-13T08:16:25.270Z,7.20
2022-10-13T08:18:54.461Z,7.00
2022-10-13T08:24:12.944Z,7.70
2022-10-13T08:26:41.754Z,7.40
2022-10-13T08:29:21.297Z,7.70
2022-10-13T08:31:52.110Z,8.10
2022-10-13T08:34:21.593Z,8.50
2022-10-13T08:36:50.678Z,8.30
2022-10-13T08:39:18.202Z,7.00
2022-10-13T08:41:44.812Z,7.60
2022-10-13T08:47:35.599Z,7.90
2022-10-13T08:50:31.816Z,8.00
2022-10-13T08:53:14.542Z,8.00
2022-10-13T08:55:53.834Z,7.60
2022-10-13T08:58:31.575Z,8.20
2022-10-13T09:01:10.907Z,7.20
2022-10-13T09:03:59.427Z,7.60
2022-10-13T09:06:44.339Z,7.60
2022-10-13T09:09:16.595Z,7.50
2022-10-13T09:11:50.852Z,8.00
2022-10-13T09:14:38.302Z,7.70
2022-10-13T09:17:16.141Z,7.10
2022-10-13T09:19:43.503Z,6.90
2022-10-13T09:22:24.741Z,7.70
2022-10-13T09:25:19.333Z,8.70
2022-10-13T09:27:45.872Z,8.70
2022-10-13T09:30:32.377Z,7.70
2022-10-13T09:33:13.006Z,9.40
2022-10-13T09:35:49.020Z,7.80
2022-10-13T09:38:21.641Z,8.30
2022-10-13T09:41:06.532Z,9.30
2022-10-13T09:43:48.076Z,9.00
2022-10-13T09:46:28.304Z,9.30
2022-10-13T09:49:00.203Z,10.40
2022-10-13T09:51:42.813Z,9.30
2022-10-13T09:54:36.534Z,8.70
2022-10-13T09:57:31.796Z,8.80
2022-10-13T10:00:19.283Z,7.80
2022-10-13T10:03:03.156Z,7.70
2022-10-13T10:05:47.004Z,9.30
2022-10-13T10:09:03.434Z,9.00
2022-10-13T10:11:41.636Z,9.00
2022-10-13T10:14:26.653Z,9.80
2022-10-13T10:17:06.689Z,9.60
2022-10-13T10:19:55.027Z,9.90
2022-10-13T10:22:33.043Z,7.90
2022-10-13T10:25:33.702Z,9.30
2022-10-13T10:28:42.858Z,8.70
2022-10-13T10:31:44.223Z,9.30
2022-10-13T10:34:35.787Z,9.90
2022-10-13T10:37:41.607Z,9.10
2022-10-13T10:40:14.207Z,9.70
2022-10-13T10:43:04.271Z,9.80
2022-10-13T10:45:37.734Z,8.90
2022-10-13T10:48:19.955Z,9.20
2022-10-13T10:50:47.521Z,10.00
2022-10-13T10:53:44.784Z,9.30
2022-10-13T10:56:51.211Z,9.90
2022-10-13T10:59:50.328Z,6.60
2022-10-13T11:02:35.325Z,8.30
2022-10-13T11:05:06.363Z,8.30
2022-10-13T11:07:33.296Z,8.80
2022-10-13T11:09:59.805Z,8.20
2022-10-13T11:12:46.424Z,8.60
2022-10-13T11:15:16.500Z,9.90
2022-10-13T11:17:43.837Z,8.70
2022-10-13T11:20:36.279Z,7.60
2022-10-13T11:23:02.744Z,7.70
2022-10-13T11:25:43.682Z,8.80
2022-10-13T11:28:24.456Z,8.20
2022-10-13T11:30:55.501Z,8.20
2022-10-13T11:33:36.702Z,8.90
2022-10-13T11:36:30.172Z,9.70
2022-10-13T11:39:38.593Z,7.10
2022-10-13T11:42:24.904Z,6.20
2022-10-13T11:42:55.611Z,8.88
2022-10-13T11:45:30.293Z,8.00
2022-10-13T11:45:46.221Z,9.13
2022-10-13T11:48:17.369Z,7.50
2022-10-13T11:48:21.565Z,8.80
2022-10-13T11:51:13.918Z,8.50
2022-10-13T11:51:24.798Z,9.50
2022-10-13T11:54:07.838Z,8.32
2022-10-13T11:54:19.221Z,7.90
2022-10-13T11:56:47.453Z,9.55
2022-10-13T11:56:57.371Z,7.90
2022-10-13T11:59:24.570Z,7.65
2022-10-13T11:59:34.217Z,7.80
2022-10-13T12:01:56.786Z,7.57
2022-10-13T12:02:27.948Z,8.70
2022-10-13T12:04:25.256Z,8.25
2022-10-13T12:05:08.893Z,6.40
2022-10-13T12:07:01.660Z,7.57
2022-10-13T12:07:41.477Z,7.70
2022-10-13T12:09:31.343Z,7.40
2022-10-13T12:10:28.701Z,7.30
2022-10-13T12:12:03.202Z,8.18
2022-10-13T12:12:55.632Z,7.30
2022-10-13T12:15:31.418Z,5.20
2022-10-13T12:17:25.888Z,8.35
2022-10-13T12:17:59.423Z,7.80
2022-10-13T12:19:54.600Z,8.23
2022-10-13T12:20:33.975Z,6.60
2022-10-13T12:22:21.935Z,7.32
2022-10-13T12:23:01.722Z,7.80
2022-10-13T12:25:04.704Z,8.18
2022-10-13T12:25:30.677Z,7.00
2022-10-13T12:27:41.356Z,8.43
2022-10-13T12:28:00.180Z,7.60
2022-10-13T12:30:24.636Z,8.68
2022-10-13T12:30:33.271Z,7.70
2022-10-13T12:32:53.422Z,8.13
2022-10-13T12:33:22.121Z,7.40
2022-10-13T12:35:21.108Z,7.53
2022-10-13T12:35:54.969Z,6.30
2022-10-13T12:37:48.522Z,8.68
2022-10-13T12:38:25.982Z,7.50
2022-10-13T12:40:19.005Z,8.48
2022-10-13T12:40:54.515Z,8.00
2022-10-13T12:42:46.390Z,8.10
2022-10-13T12:43:25.412Z,7.40
2022-10-13T12:45:19.174Z,8.73
2022-10-13T12:45:52.785Z,8.10
2022-10-13T12:47:45.676Z,8.55
2022-10-13T12:48:36.137Z,7.50
2022-10-13T12:50:27.868Z,8.02
2022-10-13T12:53:10.820Z,8.40
2022-10-13T12:54:30.277Z,7.30
2022-10-13T12:55:48.534Z,7.75
2022-10-13T12:56:59.984Z,6.50
2022-10-13T12:58:22.122Z,7.93
2022-10-13T12:59:29.090Z,7.00
2022-10-13T13:02:02.000Z,8.10
2022-10-13T13:03:43.777Z,7.93
2022-10-13T13:04:32.222Z,7.30
2022-10-13T13:06:13.209Z,7.85
2022-10-13T13:07:01.304Z,7.80
2022-10-13T13:08:44.405Z,7.90
2022-10-13T13:09:28.889Z,8.50
2022-10-13T13:11:22.328Z,8.68
2022-10-13T13:12:20.203Z,8.20
2022-10-13T13:13:49.482Z,8.07
2022-10-13T13:14:49.470Z,7.20
2022-10-13T13:16:21.677Z,8.80
2022-10-13T13:17:38.531Z,7.80
2022-10-13T13:18:49.590Z,7.47
2022-10-13T13:20:24.935Z,6.70
2022-10-13T13:21:19.447Z,8.77
2022-10-13T13:22:51.479Z,7.40
2022-10-13T13:23:52.826Z,8.60
2022-10-13T13:25:18.266Z,7.50
2022-10-13T13:26:24.097Z,8.73
2022-10-13T13:27:45.352Z,7.60
2022-10-13T13:28:52.881Z,9.07
2022-10-13T13:30:17.735Z,6.70
2022-10-13T13:31:21.946Z,7.93
2022-10-13T13:32:44.272Z,8.10
2022-10-13T13:33:49.090Z,8.20
2022-10-13T13:35:11.016Z,7.90
2022-10-13T13:36:18.996Z,8.00
2022-10-13T13:37:41.741Z,7.20
2022-10-13T13:38:47.610Z,8.55
2022-10-13T13:40:15.952Z,8.40
2022-10-13T13:41:15.458Z,7.72
2022-10-13T13:42:42.600Z,7.10
2022-10-13T13:43:42.196Z,8.40
2022-10-13T13:45:15.498Z,7.10
2022-10-13T13:46:18.040Z,7.30
2022-10-13T13:47:42.388Z,7.60
2022-10-13T13:48:44.787Z,7.60
2022-10-13T13:50:33.328Z,6.70
2022-10-13T13:51:11.315Z,6.93
2022-10-13T13:53:00.381Z,7.80
2022-10-13T13:53:37.974Z,7.47
2022-10-13T13:55:28.064Z,6.80
2022-10-13T13:56:05.191Z,8.02
2022-10-13T13:57:54.596Z,7.30
2022-10-13T13:58:31.816Z,8.00
2022-10-13T14:00:21.722Z,7.00
2022-10-13T14:00:59.585Z,8.55
2022-10-13T14:02:53.036Z,6.60
2022-10-13T14:03:26.143Z,7.63
2022-10-13T14:05:19.479Z,7.90
2022-10-13T14:05:52.679Z,8.98
2022-10-13T14:07:46.154Z,7.50
2022-10-13T14:08:19.432Z,8.23
2022-10-13T14:10:12.729Z,7.20
2022-10-13T14:10:46.159Z,7.78
2022-10-13T14:12:39.340Z,6.80
2022-10-13T14:13:17.983Z,7.70
2022-10-13T14:15:06.826Z,7.10
2022-10-13T14:15:44.433Z,7.40
2022-10-13T14:17:33.354Z,6.00
2022-10-13T14:18:10.905Z,8.15
2022-10-13T14:20:00.143Z,6.60
2022-10-13T14:20:41.931Z,8.25
2022-10-13T14:22:26.978Z,5.50
2022-10-13T14:23:08.362Z,7.80
2022-10-13T14:24:53.651Z,4.50
2022-10-13T14:25:34.918Z,8.10
2022-10-13T14:27:20.269Z,6.70
2022-10-13T14:28:01.667Z,5.85
2022-10-13T14:29:47.158Z,7.30
2022-10-13T14:30:28.110Z,6.95
2022-10-13T14:32:15.670Z,8.00
2022-10-13T14:32:54.619Z,7.97
2022-10-13T14:34:42.183Z,7.90
2022-10-13T14:35:22.674Z,7.95
2022-10-13T14:37:08.670Z,6.90
2022-10-13T14:37:49.902Z,6.95
2022-10-13T14:39:35.212Z,6.80
2022-10-13T14:40:16.405Z,7.18
2022-10-13T14:42:01.809Z,6.70
2022-10-13T14:42:42.939Z,6.28
2022-10-13T14:44:28.308Z,6.30
2022-10-13T14:45:15.726Z,6.63
2022-10-13T14:46:54.832Z,6.90
2022-10-13T14:47:42.817Z,6.50
2022-10-13T14:49:21.859Z,6.50
2022-10-13T14:50:10.505Z,8.43
2022-10-13T14:51:50.294Z,6.50
2022-10-13T14:52:36.954Z,7.32
2022-10-13T14:54:17.694Z,7.00
2022-10-13T14:55:03.705Z,6.95
2022-10-13T14:56:44.879Z,7.10
2022-10-13T14:57:30.203Z,7.00
2022-10-13T14:59:12.306Z,6.80
2022-10-13T15:00:00.843Z,7.40
2022-10-13T15:01:41.504Z,6.80
2022-10-13T15:02:28.465Z,6.60
2022-10-13T15:04:08.548Z,6.50
2022-10-13T15:04:54.980Z,7.55
2022-10-13T15:06:39.237Z,5.80
2022-10-13T15:07:21.766Z,6.72
2022-10-13T15:09:07.027Z,6.00
2022-10-13T15:10:15.031Z,6.88
2022-10-13T15:11:33.995Z,5.60
2022-10-13T15:12:34.854Z,6.63
2022-10-13T15:14:00.848Z,6.20
2022-10-13T15:15:02.253Z,7.03
2022-10-13T15:16:32.523Z,6.50
2022-10-13T15:17:30.806Z,7.03
2022-10-13T15:18:59.409Z,5.60
2022-10-13T15:19:57.236Z,7.90
2022-10-13T15:21:26.121Z,6.90
2022-10-13T15:22:24.141Z,5.97
2022-10-13T15:23:52.529Z,6.50
2022-10-13T15:24:50.970Z,5.63
2022-10-13T15:26:20.802Z,6.70
2022-10-13T15:27:17.580Z,5.50
2022-10-13T15:28:50.279Z,5.60
2022-10-13T15:29:44.306Z,6.07
2022-10-13T15:31:18.885Z,5.70
2022-10-13T15:32:17.629Z,6.38
2022-10-13T15:33:47.776Z,5.40
2022-10-13T15:34:49.437Z,6.00
2022-10-13T15:36:14.698Z,5.40
2022-10-13T15:37:15.915Z,5.38
2022-10-13T15:38:41.156Z,5.00
2022-10-13T15:39:42.430Z,6.43
2022-10-13T15:41:08.014Z,5.70
2022-10-13T15:42:11.355Z,6.15
2022-10-13T15:43:34.647Z,5.40
2022-10-13T15:45:04.951Z,5.80
2022-10-13T15:46:04.270Z,5.20
2022-10-13T15:47:24.635Z,6.28
2022-10-13T15:48:31.338Z,6.10
2022-10-13T15:49:51.136Z,6.10
2022-10-13T15:50:58.342Z,6.50
2022-10-13T15:52:17.708Z,6.60
2022-10-13T15:53:25.514Z,4.80
2022-10-13T15:54:44.238Z,6.05
2022-10-13T15:55:52.489Z,4.90
2022-10-13T15:57:10.696Z,4.80
2022-10-13T15:58:19.036Z,5.70
2022-10-13T15:59:37.140Z,5.28
2022-10-13T16:00:45.669Z,4.40
2022-10-13T16:02:03.582Z,5.15
2022-10-13T16:03:16.713Z,4.80
2022-10-13T16:04:34.859Z,5.47
2022-10-13T16:05:45.179Z,5.00
2022-10-13T16:07:03.677Z,6.13
2022-10-13T16:08:12.767Z,5.20
2022-10-13T16:09:30.821Z,4.85
2022-10-13T16:10:41.351Z,5.20
2022-10-13T16:11:57.286Z,6.43
2022-10-13T16:13:08.957Z,5.20
2022-10-13T16:14:23.725Z,5.55
2022-10-13T16:15:35.504Z,5.50
2022-10-13T16:16:50.246Z,5.38
2022-10-13T16:18:02.159Z,4.60
2022-10-13T16:19:16.696Z,5.78
2022-10-13T16:20:34.227Z,4.30
2022-10-13T16:21:43.520Z,6.07
2022-10-13T16:23:01.572Z,4.70
2022-10-13T16:24:10.003Z,6.95
2022-10-13T16:25:29.417Z,4.80
2022-10-13T16:26:36.485Z,6.35
2022-10-13T16:27:56.258Z,4.60
2022-10-13T16:29:03.153Z,6.90
2022-10-13T16:30:22.703Z,5.40
2022-10-13T16:31:29.648Z,6.68
2022-10-13T16:32:49.302Z,5.20
2022-10-13T16:33:56.135Z,5.45
2022-10-13T16:35:15.961Z,5.40
2022-10-13T16:36:24.401Z,5.57
2022-10-13T16:37:42.484Z,5.50
2022-10-13T16:38:52.652Z,6.22
2022-10-13T16:40:09.381Z,5.50
2022-10-13T16:41:19.629Z,5.88
2022-10-13T16:42:35.841Z,4.90
2022-10-13T16:43:48.032Z,6.75
2022-10-13T16:45:02.385Z,5.20
2022-10-13T16:46:17.268Z,6.82
2022-10-13T16:47:28.909Z,5.10
2022-10-13T16:48:45.345Z,5.78
2022-10-13T16:49:55.364Z,5.50
2022-10-13T16:51:15.333Z,5.30
2022-10-13T16:52:23.655Z,5.40
2022-10-13T16:53:42.232Z,5.75
2022-10-13T16:54:50.294Z,5.10
2022-10-13T16:56:09.410Z,5.72
2022-10-13T16:57:16.740Z,5.20
2022-10-13T16:58:35.924Z,5.68
2022-10-13T16:59:43.244Z,5.30
2022-10-13T17:01:10.971Z,5.10
2022-10-13T17:02:16.071Z,5.00
2022-10-13T17:03:43.908Z,6.05
2022-10-13T17:04:43.332Z,5.20
2022-10-13T17:06:11.956Z,6.18
2022-10-13T17:07:09.851Z,5.20
2022-10-13T17:08:40.094Z,6.30
2022-10-13T17:09:36.473Z,4.90
2022-10-13T17:11:07.868Z,5.07
2022-10-13T17:12:04.142Z,5.10
2022-10-13T17:13:36.783Z,6.65
2022-10-13T17:14:30.715Z,6.10
2022-10-13T17:16:03.679Z,6.47
2022-10-13T17:16:58.127Z,5.50
2022-10-13T17:18:30.252Z,6.03
2022-10-13T17:19:25.639Z,5.50
2022-10-13T17:21:02.668Z,7.50
2022-10-13T17:21:52.160Z,5.40
2022-10-13T17:23:30.451Z,8.10
2022-10-13T17:24:18.929Z,5.90
2022-10-13T17:26:01.886Z,8.35
2022-10-13T17:26:45.738Z,5.70
2022-10-13T17:28:28.525Z,9.38
2022-10-13T17:29:12.279Z,5.20
2022-10-13T17:31:03.006Z,8.30
2022-10-13T17:31:38.743Z,6.60
2022-10-13T17:33:32.385Z,9.80
2022-10-13T17:34:06.159Z,6.70
2022-10-13T17:36:07.481Z,10.18
2022-10-13T17:36:34.115Z,7.20
2022-10-13T17:39:09.547Z,7.50
2022-10-13T17:41:39.794Z,6.70
2022-10-13T17:44:06.262Z,6.80
2022-10-13T17:46:38.232Z,7.20
2022-10-13T17:49:07.886Z,6.60
2022-10-13T17:51:34.729Z,6.50
2022-10-13T17:54:01.249Z,7.30
2022-10-13T17:56:29.195Z,7.20
2022-10-13T17:58:56.630Z,7.60
2022-10-13T18:01:32.244Z,6.90
2022-10-13T18:04:01.649Z,7.60
2022-10-13T18:06:35.159Z,7.20
2022-10-13T18:09:13.030Z,7.60
2022-10-13T18:11:42.501Z,7.80
2022-10-13T18:14:12.648Z,7.60
2022-10-13T18:16:42.349Z,8.20
2022-10-13T18:19:10.177Z,8.70
2022-10-13T18:21:36.747Z,8.40
2022-10-13T18:24:03.374Z,8.80
2022-10-13T18:26:32.222Z,10.00
2022-10-13T18:28:58.918Z,9.30
2022-10-13T18:31:30.851Z,8.80
2022-10-13T18:34:03.592Z,8.10
2022-10-13T18:36:33.223Z,7.80
2022-10-13T18:39:08.298Z,7.50
2022-10-13T18:41:36.796Z,7.70
2022-10-13T18:44:04.143Z,8.90
2022-10-13T18:46:32.005Z,13.00
2022-10-13T18:48:58.545Z,13.00
2022-10-13T18:51:25.506Z,14.30
2022-10-13T18:53:52.032Z,12.20
2022-10-13T18:56:26.333Z,11.10
2022-10-13T18:58:59.447Z,9.60
2022-10-13T19:01:29.518Z,9.50
2022-10-13T19:03:56.523Z,9.30
2022-10-13T19:06:26.757Z,9.60
2022-10-13T19:08:56.340Z,9.30
2022-10-13T19:11:24.084Z,10.40
2022-10-13T19:13:51.387Z,11.10
2022-10-13T19:16:20.971Z,10.90
2022-10-13T19:18:48.440Z,16.50
2022-10-13T19:21:15.069Z,20.50
2022-10-13T19:23:41.514Z,11.20
2022-10-13T19:26:23.599Z,16.20
2022-10-13T19:28:54.708Z,11.70
2022-10-13T19:31:23.370Z,11.10
2022-10-13T19:33:50.875Z,10.90
2022-10-13T19:36:32.972Z,11.60
2022-10-13T19:39:07.160Z,11.60
2022-10-13T19:41:34.165Z,12.50
2022-10-13T19:44:02.312Z,12.80
2022-10-13T19:46:39.319Z,12.80
2022-10-13T19:49:05.816Z,11.50
2022-10-13T19:51:33.474Z,11.10
2022-10-13T19:54:00.408Z,11.60
2022-10-13T19:56:31.354Z,10.10
2022-10-13T19:58:58.928Z,11.20
2022-10-13T20:01:25.658Z,11.40
2022-10-13T20:03:52.851Z,12.20
2022-10-13T20:06:20.720Z,12.40
2022-10-13T20:08:47.839Z,11.50
2022-10-13T20:11:22.395Z,11.20
2022-10-13T20:16:19.357Z,10.40
2022-10-13T20:18:51.387Z,10.70
2022-10-13T20:21:17.872Z,11.50
2022-10-13T20:23:44.392Z,11.60
2022-10-13T20:26:12.638Z,13.10
2022-10-13T20:28:44.116Z,12.60
2022-10-13T20:31:12.874Z,11.80
2022-10-13T20:33:39.917Z,12.00
2022-10-13T20:36:10.413Z,12.40
2022-10-13T20:38:37.097Z,11.60
2022-10-13T20:41:17.704Z,11.70
2022-10-13T20:43:45.699Z,11.10
2022-10-13T20:46:12.538Z,12.10
2022-10-13T20:49:08.859Z,13.60
2022-10-13T20:51:27.425Z,13.20
2022-10-13T20:53:54.306Z,12.30
2022-10-13T20:56:23.638Z,11.70
2022-10-13T20:58:50.845Z,12.60
2022-10-13T21:01:19.079Z,12.80
2022-10-13T21:03:46.393Z,13.10
2022-10-13T21:06:14.176Z,12.60
2022-10-13T21:08:44.124Z,14.00
2022-10-13T21:11:12.839Z,12.40
2022-10-13T21:13:40.907Z,14.20
2022-10-13T21:16:09.097Z,12.60
2022-10-13T21:18:35.740Z,12.60
2022-10-13T21:21:07.353Z,11.80
2022-10-13T21:23:33.929Z,13.30
2022-10-13T21:26:02.635Z,13.10
2022-10-13T21:28:30.749Z,14.10
2022-10-13T21:31:08.457Z,13.40
2022-10-13T21:33:37.104Z,13.60
2022-10-13T21:36:16.745Z,7.10
2022-10-13T21:38:44.848Z,12.10
2022-10-13T21:41:13.330Z,12.40
2022-10-13T21:43:40.419Z,12.90
2022-10-13T21:46:19.531Z,12.80
2022-10-13T21:48:54.037Z,13.50
2022-10-13T21:51:26.359Z,14.60
2022-10-13T21:53:58.570Z,13.40
2022-10-13T21:56:26.390Z,13.10
2022-10-13T21:58:53.873Z,13.30
2022-10-13T22:01:21.196Z,13.10
2022-10-13T22:03:48.470Z,13.00
2022-10-13T22:06:19.670Z,14.20
2022-10-13T22:08:50.671Z,13.90
2022-10-13T22:11:26.801Z,14.10
2022-10-13T22:13:55.990Z,15.40
2022-10-13T22:16:24.980Z,15.00
2022-10-13T22:18:52.754Z,14.90
2022-10-13T22:21:22.353Z,15.00
2022-10-13T22:23:49.333Z,11.80
2022-10-13T22:26:18.126Z,12.90
2022-10-13T22:28:48.115Z,15.20
2022-10-13T22:31:15.263Z,13.50
2022-10-13T22:33:43.746Z,15.10
2022-10-13T22:36:14.422Z,15.80
2022-10-13T22:38:41.244Z,15.00
2022-10-13T22:41:08.473Z,15.40
2022-10-13T22:43:36.437Z,14.40
2022-10-13T22:46:13.749Z,14.10
2022-10-13T22:48:41.672Z,10.80
2022-10-13T22:51:16.350Z,14.30
2022-10-13T22:53:42.952Z,11.70
2022-10-13T22:56:13.534Z,12.60
2022-10-13T22:58:40.231Z,13.10
2022-10-13T23:01:09.568Z,14.00
2022-10-13T23:03:37.237Z,13.50
2022-10-13T23:06:05.357Z,13.30
2022-10-13T23:08:31.997Z,12.90
2022-10-13T23:10:58.474Z,13.70
2022-10-13T23:13:25.443Z,12.90
2022-10-13T23:15:53.607Z,12.70
2022-10-13T23:18:24.391Z,11.60
2022-10-13T23:20:54.424Z,13.30
2022-10-13T23:23:25.502Z,13.20
2022-10-13T23:25:51.900Z,13.60
2022-10-13T23:28:18.332Z,13.60
2022-10-13T23:30:44.845Z,13.20
2022-10-13T23:33:11.282Z,13.00
2022-10-13T23:35:37.708Z,12.60
2022-10-13T23:38:04.178Z,14.10
2022-10-13T23:40:34.549Z,14.40
2022-10-13T23:43:01.001Z,14.60
2022-10-13T23:45:27.484Z,11.00
2022-10-13T23:47:53.948Z,13.80
2022-10-13T23:50:21.817Z,14.50
2022-10-13T23:52:48.280Z,13.70
2022-10-13T23:55:15.088Z,13.30
2022-10-13T23:57:41.523Z,14.80
